createdAt,value
2018-12-13T00:00:45.659Z,-0.21
2018-12-13T00:02:22.093Z,-0.30
2018-12-13T00:03:58.429Z,-0.31
2018-12-13T00:05:34.216Z,-0.32
2018-12-13T00:07:11.130Z,-0.31
2018-12-13T00:08:50.750Z,-0.37
2018-12-13T00:10:26.152Z,-0.38
2018-12-13T00:12:02.435Z,-0.37
2018-12-13T00:13:38.797Z,-0.41
2018-12-13T00:15:20.373Z,-0.34
2018-12-13T00:16:59.056Z,-0.41
2018-12-13T00:18:38.240Z,-0.36
2018-12-13T00:20:15.279Z,-0.28
2018-12-13T00:21:51.395Z,-0.29
2018-12-13T00:23:26.697Z,-0.25
2018-12-13T00:25:02.527Z,-0.20
2018-12-13T00:26:38.670Z,-0.17
2018-12-13T00:28:20.660Z,-0.08
2018-12-13T00:31:43.689Z,0.02
2018-12-13T00:33:24.103Z,0.02
2018-12-13T00:35:04.398Z,0.02
2018-12-13T00:36:41.364Z,-0.01
2018-12-13T00:38:21.162Z,0.03
2018-12-13T00:39:59.473Z,-0.08
2018-12-13T00:41:39.515Z,-0.04
2018-12-13T00:43:20.405Z,-0.14
2018-12-13T00:44:57.392Z,-0.24
2018-12-13T00:46:39.242Z,-0.20
2018-12-13T00:48:17.466Z,-0.23
2018-12-13T00:49:57.040Z,-0.23
2018-12-13T00:51:35.633Z,-0.30
2018-12-13T00:53:12.756Z,-0.30
2018-12-13T00:54:49.113Z,-0.36
2018-12-13T00:56:24.536Z,-0.40
2018-12-13T00:58:03.368Z,-0.44
2018-12-13T00:59:39.735Z,-0.43
2018-12-13T01:01:16.157Z,-0.38
2018-12-13T01:02:52.887Z,-0.32
2018-12-13T01:04:31.743Z,-0.33
2018-12-13T01:06:07.772Z,-0.29
2018-12-13T01:07:46.443Z,-0.23
2018-12-13T01:09:23.827Z,-0.22
2018-12-13T01:11:01.722Z,-0.09
2018-12-13T01:12:39.999Z,-0.04
2018-12-13T01:14:20.395Z,-0.01
2018-12-13T01:15:56.419Z,0.07
2018-12-13T01:17:35.121Z,0.12
2018-12-13T01:19:12.641Z,0.14
2018-12-13T01:20:50.431Z,0.24
2018-12-13T01:22:28.157Z,0.23
2018-12-13T01:24:05.724Z,0.25
2018-12-13T01:25:42.378Z,0.29
2018-12-13T01:27:23.735Z,0.29
2018-12-13T01:29:01.047Z,0.25
2018-12-13T01:30:37.807Z,0.23
2018-12-13T01:32:20.015Z,0.27
2018-12-13T01:33:59.129Z,0.31
2018-12-13T01:35:36.172Z,0.33
2018-12-13T01:37:12.335Z,0.37
2018-12-13T01:38:50.625Z,0.35
2018-12-13T01:40:27.388Z,0.38
2018-12-13T01:42:04.794Z,0.44
2018-12-13T01:43:41.532Z,0.45
2018-12-13T01:45:21.881Z,0.47
2018-12-13T01:47:02.025Z,0.50
2018-12-13T01:48:39.597Z,0.51
2018-12-13T01:50:14.913Z,0.49
2018-12-13T01:51:51.306Z,0.52
2018-12-13T01:53:28.275Z,0.55
2018-12-13T01:55:06.082Z,0.59
2018-12-13T01:56:45.556Z,0.60
2018-12-13T01:58:22.986Z,0.59
2018-12-13T02:00:01.590Z,0.56
2018-12-13T02:01:45.533Z,0.54
2018-12-13T02:03:21.522Z,0.48
2018-12-13T02:05:01.265Z,0.44
2018-12-13T02:06:37.107Z,0.32
2018-12-13T02:08:16.980Z,0.23
2018-12-13T02:09:52.897Z,0.14
2018-12-13T02:11:29.860Z,0.09
2018-12-13T02:13:06.188Z,-0.02
2018-12-13T02:14:45.380Z,-0.07
2018-12-13T02:16:22.746Z,-0.12
2018-12-13T02:17:57.975Z,-0.17
2018-12-13T02:19:35.389Z,-0.28
2018-12-13T02:21:10.854Z,-0.24
2018-12-13T02:22:46.571Z,-0.34
2018-12-13T02:24:23.868Z,-0.37
2018-12-13T02:26:00.006Z,-0.44
2018-12-13T02:27:38.747Z,-0.47
2018-12-13T02:29:14.446Z,-0.47
2018-12-13T02:30:55.992Z,-0.56
2018-12-13T02:32:32.929Z,-0.56
2018-12-13T02:34:10.046Z,-0.62
2018-12-13T02:35:46.916Z,-0.65
2018-12-13T02:37:25.301Z,-0.69
2018-12-13T02:39:04.363Z,-0.70
2018-12-13T02:40:42.571Z,-0.70
2018-12-13T02:42:19.403Z,-0.69
2018-12-13T02:43:56.664Z,-0.73
2018-12-13T02:45:34.181Z,-0.66
2018-12-13T02:47:11.551Z,-0.77
2018-12-13T02:48:47.315Z,-0.82
2018-12-13T02:50:32.942Z,-0.95
2018-12-13T02:52:10.279Z,-0.86
2018-12-13T02:53:46.880Z,-0.94
2018-12-13T02:55:22.040Z,-1.01
2018-12-13T02:56:57.391Z,-0.97
2018-12-13T02:58:33.361Z,-0.86
2018-12-13T03:00:09.867Z,-0.88
2018-12-13T03:01:45.652Z,-0.89
2018-12-13T03:03:23.671Z,-0.89
2018-12-13T03:04:59.487Z,-0.88
2018-12-13T03:06:34.629Z,-0.87
2018-12-13T03:08:10.626Z,-0.82
2018-12-13T03:09:47.347Z,-0.79
2018-12-13T03:11:23.281Z,-0.75
2018-12-13T03:12:59.008Z,-0.69
2018-12-13T03:14:39.691Z,-0.65
2018-12-13T03:16:15.462Z,-0.64
2018-12-13T03:17:52.598Z,-0.58
2018-12-13T03:19:29.479Z,-0.59
2018-12-13T03:21:06.245Z,-0.48
2018-12-13T03:22:42.567Z,-0.49
2018-12-13T03:24:18.799Z,-0.51
2018-12-13T03:25:55.430Z,-0.58
2018-12-13T03:29:30.949Z,-0.59
2018-12-13T03:31:07.510Z,-0.63
2018-12-13T03:32:44.924Z,-0.62
2018-12-13T03:34:21.319Z,-0.67
2018-12-13T03:35:58.022Z,-0.69
2018-12-13T03:37:35.520Z,-0.67
2018-12-13T03:39:12.196Z,-0.72
2018-12-13T03:40:50.374Z,-0.77
2018-12-13T03:42:26.059Z,-0.79
2018-12-13T03:44:01.532Z,-0.82
2018-12-13T03:45:36.945Z,-0.84
2018-12-13T03:47:12.290Z,-0.90
2018-12-13T03:48:47.948Z,-0.93
2018-12-13T03:50:22.987Z,-0.94
2018-12-13T03:51:58.088Z,-0.98
2018-12-13T03:53:33.428Z,-1.00
2018-12-13T03:55:08.859Z,-1.01
2018-12-13T03:56:44.268Z,-1.06
2018-12-13T03:58:19.714Z,-1.08
2018-12-13T03:59:55.207Z,-1.09
2018-12-13T04:01:30.846Z,-1.13
2018-12-13T04:03:07.280Z,-1.16
2018-12-13T04:04:42.612Z,-1.19
2018-12-13T04:06:17.753Z,-1.20
2018-12-13T04:07:53.140Z,-1.19
2018-12-13T04:09:28.394Z,-1.25
2018-12-13T04:11:03.407Z,-1.23
2018-12-13T04:12:39.233Z,-1.25
2018-12-13T04:14:17.343Z,-1.25
2018-12-13T04:15:53.897Z,-1.26
2018-12-13T04:17:30.494Z,-1.24
2018-12-13T04:19:06.919Z,-1.25
2018-12-13T04:20:42.821Z,-1.26
2018-12-13T04:22:17.916Z,-1.18
2018-12-13T04:23:55.978Z,-1.15
2018-12-13T04:25:31.728Z,-1.05
2018-12-13T04:27:08.075Z,-1.00
2018-12-13T04:28:43.312Z,-0.97
2018-12-13T04:30:19.355Z,-0.91
2018-12-13T04:31:54.603Z,-0.86
2018-12-13T04:33:30.635Z,-0.81
2018-12-13T04:35:06.913Z,-0.81
2018-12-13T04:36:41.935Z,-0.77
2018-12-13T04:38:18.437Z,-0.72
2018-12-13T04:39:53.540Z,-0.75
2018-12-13T04:41:29.561Z,-0.86
2018-12-13T04:43:06.487Z,-0.85
2018-12-13T04:44:42.969Z,-0.86
2018-12-13T04:46:18.580Z,-0.89
2018-12-13T04:47:54.217Z,-0.93
2018-12-13T04:49:29.245Z,-0.98
2018-12-13T04:51:04.768Z,-1.05
2018-12-13T04:52:40.517Z,-1.09
2018-12-13T04:54:16.042Z,-1.13
2018-12-13T04:55:51.066Z,-1.24
2018-12-13T04:57:26.214Z,-1.27
2018-12-13T04:59:02.048Z,-1.27
2018-12-13T05:00:37.486Z,-1.34
2018-12-13T05:02:14.284Z,-1.36
2018-12-13T05:03:49.433Z,-1.40
2018-12-13T05:05:24.689Z,-1.45
2018-12-13T05:07:00.064Z,-1.50
2018-12-13T05:08:35.532Z,-1.50
2018-12-13T05:10:11.069Z,-1.55
2018-12-13T05:11:46.374Z,-1.55
2018-12-13T05:13:21.936Z,-1.57
2018-12-13T05:14:57.607Z,-1.57
2018-12-13T05:16:33.563Z,-1.60
2018-12-13T05:18:08.912Z,-1.64
2018-12-13T05:19:43.995Z,-1.61
2018-12-13T05:21:19.020Z,-1.63
2018-12-13T05:22:54.600Z,-1.61
2018-12-13T05:24:29.734Z,-1.63
2018-12-13T05:26:10.579Z,-1.63
2018-12-13T05:27:45.984Z,-1.62
2018-12-13T05:29:24.160Z,-1.65
2018-12-13T05:30:59.423Z,-1.64
2018-12-13T05:32:37.050Z,-1.68
2018-12-13T05:34:12.986Z,-1.72
2018-12-13T05:35:48.458Z,-1.71
2018-12-13T05:37:23.831Z,-1.69
2018-12-13T05:38:59.562Z,-1.73
2018-12-13T05:40:34.717Z,-1.72
2018-12-13T05:42:10.375Z,-1.73
2018-12-13T05:43:49.075Z,-1.79
2018-12-13T05:45:24.345Z,-1.74
2018-12-13T05:46:59.447Z,-1.77
2018-12-13T05:48:36.753Z,-1.79
2018-12-13T05:50:11.792Z,-1.83
2018-12-13T05:51:47.562Z,-1.76
2018-12-13T05:53:22.934Z,-1.79
2018-12-13T05:54:59.494Z,-1.78
2018-12-13T05:56:34.736Z,-1.79
2018-12-13T05:58:12.956Z,-1.81
2018-12-13T05:59:49.411Z,-1.83
2018-12-13T06:01:24.475Z,-1.86
2018-12-13T06:02:59.656Z,-1.86
2018-12-13T06:04:35.068Z,-1.87
2018-12-13T06:06:10.171Z,-1.90
2018-12-13T06:07:45.338Z,-1.88
2018-12-13T06:09:25.103Z,-1.95
2018-12-13T06:11:01.409Z,-1.96
2018-12-13T06:12:36.898Z,-1.93
2018-12-13T06:14:12.127Z,-1.92
2018-12-13T06:15:48.941Z,-1.93
2018-12-13T06:17:25.099Z,-1.97
2018-12-13T06:19:09.208Z,-1.97
2018-12-13T06:20:44.364Z,-2.01
2018-12-13T06:22:20.423Z,-2.08
2018-12-13T06:23:56.740Z,-2.06
2018-12-13T06:25:33.132Z,-2.08
2018-12-13T06:27:09.472Z,-2.14
2018-12-13T06:28:45.542Z,-2.23
2018-12-13T06:30:21.752Z,-2.20
2018-12-13T06:31:57.357Z,-2.23
2018-12-13T06:33:32.727Z,-2.24
2018-12-13T06:35:08.388Z,-2.27
2018-12-13T06:36:43.742Z,-2.27
2018-12-13T06:38:21.704Z,-2.29
2018-12-13T06:39:58.880Z,-2.26
2018-12-13T06:41:35.225Z,-2.24
2018-12-13T06:43:12.199Z,-2.24
2018-12-13T06:44:48.083Z,-2.26
2018-12-13T06:46:24.989Z,-2.28
2018-12-13T06:48:00.379Z,-2.32
2018-12-13T06:49:36.647Z,-2.30
2018-12-13T06:51:12.491Z,-2.30
2018-12-13T06:52:48.224Z,-2.22
2018-12-13T06:54:23.752Z,-2.24
2018-12-13T06:55:59.757Z,-2.29
2018-12-13T06:57:36.477Z,-2.24
2018-12-13T06:59:13.825Z,-2.28
2018-12-13T07:00:50.662Z,-2.30
2018-12-13T07:02:29.610Z,-2.30
2018-12-13T07:04:05.216Z,-2.28
2018-12-13T07:05:40.327Z,-2.31
2018-12-13T07:07:17.017Z,-2.28
2018-12-13T07:08:52.470Z,-2.25
2018-12-13T07:10:29.511Z,-2.31
2018-12-13T07:12:05.480Z,-2.33
2018-12-13T07:13:43.150Z,-2.31
2018-12-13T07:15:18.368Z,-2.32
2018-12-13T07:16:53.902Z,-2.34
2018-12-13T07:18:30.535Z,-2.35
2018-12-13T07:20:06.210Z,-2.35
2018-12-13T07:21:45.020Z,-2.32
2018-12-13T07:23:20.149Z,-2.36
2018-12-13T07:24:55.372Z,-2.39
2018-12-13T07:26:31.050Z,-2.38
2018-12-13T07:28:09.662Z,-2.36
2018-12-13T07:29:45.473Z,-2.40
2018-12-13T07:31:22.527Z,-2.40
2018-12-13T07:32:58.234Z,-2.39
2018-12-13T07:34:33.768Z,-2.37
2018-12-13T07:36:08.991Z,-2.39
2018-12-13T07:37:45.001Z,-2.41
2018-12-13T07:39:20.154Z,-2.43
2018-12-13T07:40:55.335Z,-2.48
2018-12-13T07:42:32.688Z,-2.48
2018-12-13T07:44:08.102Z,-2.52
2018-12-13T07:45:44.481Z,-2.52
2018-12-13T07:47:24.371Z,-2.53
2018-12-13T07:49:00.111Z,-2.48
2018-12-13T07:50:35.276Z,-2.48
2018-12-13T07:52:10.503Z,-2.49
2018-12-13T07:53:45.827Z,-2.48
2018-12-13T07:55:22.337Z,-2.49
2018-12-13T07:56:57.564Z,-2.50
2018-12-13T07:58:32.781Z,-2.53
2018-12-13T08:00:10.428Z,-2.58
2018-12-13T08:01:46.172Z,-2.56
2018-12-13T08:03:25.473Z,-2.49
2018-12-13T08:05:01.220Z,-2.53
2018-12-13T08:06:36.564Z,-2.53
2018-12-13T08:08:11.984Z,-2.53
2018-12-13T08:09:47.656Z,-2.43
2018-12-13T08:11:22.939Z,-2.44
2018-12-13T08:12:58.880Z,-2.43
2018-12-13T08:14:34.727Z,-2.41
2018-12-13T08:16:13.274Z,-2.43
2018-12-13T08:17:49.514Z,-2.39
2018-12-13T08:19:25.680Z,-2.39
2018-12-13T08:21:00.785Z,-2.35
2018-12-13T08:22:37.686Z,-2.35
2018-12-13T08:24:15.326Z,-2.34
2018-12-13T08:25:50.424Z,-2.33
2018-12-13T08:27:26.166Z,-2.33
2018-12-13T08:29:01.424Z,-2.28
2018-12-13T08:30:37.658Z,-2.29
2018-12-13T08:32:13.458Z,-2.25
2018-12-13T08:33:48.969Z,-2.23
2018-12-13T08:35:24.089Z,-2.18
2018-12-13T08:36:59.219Z,-2.21
2018-12-13T08:38:34.692Z,-2.22
2018-12-13T08:40:10.658Z,-2.17
2018-12-13T08:41:46.247Z,-2.17
2018-12-13T08:43:22.667Z,-2.13
2018-12-13T08:44:59.019Z,-2.11
2018-12-13T08:46:37.944Z,-2.09
2018-12-13T08:48:13.795Z,-2.08
2018-12-13T08:49:50.432Z,-2.03
2018-12-13T08:51:26.145Z,-2.05
2018-12-13T08:53:01.635Z,-1.99
2018-12-13T08:54:37.477Z,-1.95
2018-12-13T08:56:13.819Z,-1.92
2018-12-13T08:57:50.123Z,-1.91
2018-12-13T08:59:25.622Z,-1.87
2018-12-13T09:01:01.102Z,-1.83
2018-12-13T09:02:37.267Z,-1.84
2018-12-13T09:04:12.703Z,-1.85
2018-12-13T09:05:49.255Z,-1.77
2018-12-13T09:07:28.517Z,-1.79
2018-12-13T09:09:05.480Z,-1.72
2018-12-13T09:10:40.567Z,-1.69
2018-12-13T09:12:19.328Z,-1.68
2018-12-13T09:13:54.857Z,-1.65
2018-12-13T09:15:30.640Z,-1.65
2018-12-13T09:17:06.777Z,-1.63
2018-12-13T09:18:43.221Z,-1.64
2018-12-13T09:20:19.620Z,-1.58
2018-12-13T09:21:56.252Z,-1.60
2018-12-13T09:23:33.917Z,-1.58
2018-12-13T09:25:09.476Z,-1.59
2018-12-13T09:26:45.520Z,-1.55
2018-12-13T09:28:20.925Z,-1.55
2018-12-13T09:29:56.626Z,-1.55
2018-12-13T09:31:32.972Z,-1.57
2018-12-13T09:33:10.786Z,-1.54
2018-12-13T09:34:47.637Z,-1.48
2018-12-13T09:36:24.300Z,-1.50
2018-12-13T09:38:00.129Z,-1.47
2018-12-13T09:39:37.871Z,-1.41
2018-12-13T09:41:13.377Z,-1.42
2018-12-13T09:42:48.948Z,-1.41
2018-12-13T09:44:23.840Z,-1.39
2018-12-13T09:45:59.424Z,-1.37
2018-12-13T09:47:35.775Z,-1.36
2018-12-13T09:49:11.037Z,-1.35
2018-12-13T09:50:46.308Z,-1.30
2018-12-13T09:52:22.373Z,-1.28
2018-12-13T09:53:58.581Z,-1.32
2018-12-13T09:55:33.649Z,-1.27
2018-12-13T09:57:10.721Z,-1.22
2018-12-13T09:58:46.120Z,-1.24
2018-12-13T10:00:22.706Z,-1.23
2018-12-13T10:01:57.633Z,-1.22
2018-12-13T10:03:36.129Z,-1.24
2018-12-13T10:05:12.929Z,-1.22
2018-12-13T10:06:49.578Z,-1.22
2018-12-13T10:08:27.233Z,-1.19
2018-12-13T10:10:02.604Z,-1.20
2018-12-13T10:11:38.070Z,-1.18
2018-12-13T10:13:13.264Z,-1.18
2018-12-13T10:14:48.480Z,-1.18
2018-12-13T10:16:24.586Z,-1.14
2018-12-13T10:18:00.051Z,-1.10
2018-12-13T10:19:36.763Z,-1.14
2018-12-13T10:21:13.830Z,-1.11
2018-12-13T10:22:49.008Z,-1.10
2018-12-13T10:24:24.040Z,-1.09
2018-12-13T10:25:59.607Z,-1.12
2018-12-13T10:27:34.656Z,-1.09
2018-12-13T10:29:10.621Z,-1.06
2018-12-13T10:30:45.805Z,-1.07
2018-12-13T10:32:21.285Z,-1.06
2018-12-13T10:33:57.445Z,-1.03
2018-12-13T10:35:33.898Z,-1.06
2018-12-13T10:37:08.916Z,-1.09
2018-12-13T10:38:52.958Z,-1.09
2018-12-13T10:40:26.085Z,-1.03
2018-12-13T10:42:01.229Z,-1.04
2018-12-13T10:43:36.801Z,-1.04
2018-12-13T10:45:13.534Z,-1.05
2018-12-13T10:46:49.565Z,-1.05
2018-12-13T10:48:26.565Z,-1.01
2018-12-13T10:50:01.741Z,-1.03
2018-12-13T10:51:37.560Z,-1.01
2018-12-13T10:53:14.789Z,-1.02
2018-12-13T10:54:49.621Z,-1.07
2018-12-13T10:56:25.117Z,-1.05
2018-12-13T10:58:00.857Z,-1.06
2018-12-13T10:59:36.225Z,-1.02
2018-12-13T11:01:17.093Z,-1.03
2018-12-13T11:03:07.296Z,-1.04
2018-12-13T11:04:42.525Z,-1.03
2018-12-13T11:06:17.564Z,-1.00
2018-12-13T11:07:55.294Z,-1.01
2018-12-13T11:09:33.379Z,-1.06
2018-12-13T11:11:09.519Z,-1.07
2018-12-13T11:12:44.440Z,-1.03
2018-12-13T11:14:20.599Z,-1.02
2018-12-13T11:15:59.529Z,-1.02
2018-12-13T11:17:35.542Z,-1.05
2018-12-13T11:19:10.590Z,-1.02
2018-12-13T11:20:45.480Z,-1.01
2018-12-13T11:22:23.599Z,-1.02
2018-12-13T11:23:58.577Z,-1.00
2018-12-13T11:25:34.611Z,-0.99
2018-12-13T11:27:20.997Z,-0.98
2018-12-13T11:30:09.209Z,-0.96
2018-12-13T11:31:44.681Z,-0.94
2018-12-13T11:33:22.148Z,-0.98
2018-12-13T11:34:59.438Z,-0.94
2018-12-13T11:36:35.793Z,-0.92
2018-12-13T11:38:14.322Z,-0.90
2018-12-13T11:39:49.317Z,-0.89
2018-12-13T11:41:28.694Z,-0.85
2018-12-13T11:43:06.149Z,-0.79
2018-12-13T11:44:43.167Z,-0.78
2018-12-13T11:46:21.348Z,-0.74
2018-12-13T11:47:59.657Z,-0.76
2018-12-13T11:49:35.725Z,-0.76
2018-12-13T11:51:10.944Z,-0.74
2018-12-13T11:52:51.492Z,-0.72
2018-12-13T11:54:40.591Z,-0.71
2018-12-13T11:56:15.854Z,-0.66
2018-12-13T11:57:50.857Z,-0.69
2018-12-13T11:59:29.289Z,-0.61
2018-12-13T12:01:04.549Z,-0.62
2018-12-13T12:02:39.793Z,-0.58
2018-12-13T12:04:16.465Z,-0.62
2018-12-13T12:05:51.861Z,-0.54
2018-12-13T12:07:28.004Z,-0.55
2018-12-13T12:09:03.484Z,-0.50
2018-12-13T12:10:38.942Z,-0.51
2018-12-13T12:12:14.109Z,-0.50
2018-12-13T12:13:49.163Z,-0.54
2018-12-13T12:15:25.413Z,-0.51
2018-12-13T12:17:01.697Z,-0.53
2018-12-13T12:18:36.892Z,-0.48
2018-12-13T12:20:11.928Z,-0.42
2018-12-13T12:21:47.192Z,-0.41
2018-12-13T12:23:24.044Z,-0.34
2018-12-13T12:25:02.077Z,-0.35
2018-12-13T12:26:38.058Z,-0.35
2018-12-13T12:28:13.801Z,-0.31
2018-12-13T12:29:51.148Z,-0.35
2018-12-13T12:31:26.352Z,-0.28
2018-12-13T12:33:02.438Z,-0.24
2018-12-13T12:34:38.701Z,-0.26
2018-12-13T12:36:15.216Z,-0.22
2018-12-13T12:37:51.251Z,-0.24
2018-12-13T12:39:28.128Z,-0.26
2018-12-13T12:41:03.831Z,-0.24
2018-12-13T12:42:41.258Z,-0.18
2018-12-13T12:44:16.671Z,-0.19
2018-12-13T12:45:53.306Z,-0.20
2018-12-13T12:47:31.385Z,-0.17
2018-12-13T12:49:06.595Z,-0.19
2018-12-13T12:50:42.966Z,-0.17
2018-12-13T12:52:18.911Z,-0.13
2018-12-13T12:53:55.449Z,-0.15
2018-12-13T12:55:33.501Z,-0.14
2018-12-13T12:57:11.733Z,-0.13
2018-12-13T12:59:03.522Z,-0.13
2018-12-13T13:00:40.679Z,-0.12
2018-12-13T13:02:17.854Z,-0.12
2018-12-13T13:03:53.599Z,-0.11
2018-12-13T13:05:31.154Z,-0.07
2018-12-13T13:07:08.495Z,-0.06
2018-12-13T13:08:45.303Z,-0.10
2018-12-13T13:10:21.536Z,-0.08
2018-12-13T13:11:58.996Z,-0.08
2018-12-13T13:13:35.245Z,-0.08
2018-12-13T13:15:12.750Z,-0.07
2018-12-13T13:16:50.160Z,-0.08
2018-12-13T13:18:31.525Z,-0.12
2018-12-13T13:20:08.104Z,-0.09
2018-12-13T13:21:43.776Z,-0.12
2018-12-13T13:23:22.398Z,-0.05
2018-12-13T13:24:58.847Z,-0.04
2018-12-13T13:26:36.535Z,-0.06
2018-12-13T13:28:12.161Z,-0.03
2018-12-13T13:29:51.503Z,-0.02
2018-12-13T13:31:26.664Z,-0.05
2018-12-13T13:33:02.245Z,-0.07
2018-12-13T13:34:45.714Z,-0.09
2018-12-13T13:36:21.444Z,-0.13
2018-12-13T13:37:57.161Z,-0.13
2018-12-13T13:39:38.085Z,-0.12
2018-12-13T13:41:21.640Z,-0.18
2018-12-13T13:43:04.593Z,-0.20
2018-12-13T13:44:40.122Z,-0.23
2018-12-13T13:46:15.307Z,-0.24
2018-12-13T13:47:50.640Z,-0.27
2018-12-13T13:49:27.253Z,-0.32
2018-12-13T13:51:04.056Z,-0.33
2018-12-13T13:52:39.101Z,-0.34
2018-12-13T13:54:15.017Z,-0.36
2018-12-13T13:55:52.584Z,-0.34
2018-12-13T13:57:30.975Z,-0.36
2018-12-13T13:59:06.818Z,-0.38
2018-12-13T14:00:43.061Z,-0.33
2018-12-13T14:02:19.854Z,-0.37
2018-12-13T14:03:55.278Z,-0.36
2018-12-13T14:05:30.831Z,-0.36
2018-12-13T14:07:06.442Z,-0.39
2018-12-13T14:08:44.870Z,-0.38
2018-12-13T14:10:20.394Z,-0.39
2018-12-13T14:11:57.300Z,-0.43
2018-12-13T14:13:35.916Z,-0.46
2018-12-13T14:15:14.754Z,-0.50
2018-12-13T14:16:50.601Z,-0.50
2018-12-13T14:18:31.407Z,-0.52
2018-12-13T14:20:08.436Z,-0.55
2018-12-13T14:21:43.829Z,-0.57
2018-12-13T14:23:23.952Z,-0.59
2018-12-13T14:25:00.922Z,-0.62
2018-12-13T14:26:37.926Z,-0.62
2018-12-13T14:28:22.314Z,-0.61
2018-12-13T14:29:58.481Z,-0.69
2018-12-13T14:31:38.722Z,-0.73
2018-12-13T14:33:16.928Z,-0.73
2018-12-13T14:34:57.582Z,-0.75
2018-12-13T14:36:33.734Z,-0.79
2018-12-13T14:38:09.563Z,-0.79
2018-12-13T14:39:44.806Z,-0.82
2018-12-13T14:41:22.676Z,-0.83
2018-12-13T14:43:00.646Z,-0.85
2018-12-13T14:44:37.245Z,-0.94
2018-12-13T14:46:15.743Z,-0.92
2018-12-13T14:47:53.633Z,-0.95
2018-12-13T14:49:30.078Z,-0.94
2018-12-13T14:51:05.441Z,-0.98
2018-12-13T14:52:41.322Z,-1.04
2018-12-13T14:54:21.673Z,-1.02
2018-12-13T14:55:58.575Z,-1.05
2018-12-13T14:57:34.006Z,-1.04
2018-12-13T14:59:09.207Z,-1.08
2018-12-13T15:00:46.234Z,-1.09
2018-12-13T15:02:21.415Z,-1.09
2018-12-13T15:04:05.581Z,-1.11
2018-12-13T15:05:42.698Z,-1.15
2018-12-13T15:07:18.118Z,-1.15
2018-12-13T15:08:55.282Z,-1.18
2018-12-13T15:10:31.693Z,-1.16
2018-12-13T15:12:07.374Z,-1.15
2018-12-13T15:13:43.917Z,-1.14
2018-12-13T15:15:22.877Z,-1.12
2018-12-13T15:17:02.625Z,-1.11
2018-12-13T15:18:42.526Z,-1.07
2018-12-13T15:20:19.298Z,-1.03
2018-12-13T15:21:58.295Z,-1.01
2018-12-13T15:23:38.481Z,-0.97
2018-12-13T15:25:18.201Z,-0.99
2018-12-13T15:26:57.829Z,-0.93
2018-12-13T15:28:36.354Z,-0.93
2018-12-13T15:30:15.360Z,-0.91
2018-12-13T15:31:59.490Z,-0.90
2018-12-13T15:33:37.412Z,-0.85
2018-12-13T15:35:14.855Z,-0.89
2018-12-13T15:36:52.208Z,-0.83
2018-12-13T15:38:30.924Z,-0.84
2018-12-13T15:40:11.780Z,-0.82
2018-12-13T15:41:49.326Z,-0.81
2018-12-13T15:43:28.091Z,-0.80
2018-12-13T15:46:54.336Z,-0.79
2018-12-13T15:48:30.458Z,-0.80
2018-12-13T15:50:09.977Z,-0.82
2018-12-13T15:51:47.902Z,-0.79
2018-12-13T15:53:24.559Z,-0.84
2018-12-13T15:55:02.180Z,-0.85
2018-12-13T15:56:39.028Z,-0.90
2018-12-13T15:58:19.826Z,-0.94
2018-12-13T15:59:57.565Z,-1.02
2018-12-13T16:01:36.975Z,-1.04
2018-12-13T16:03:17.246Z,-1.11
2018-12-13T16:04:54.133Z,-1.18
2018-12-13T16:06:32.073Z,-1.19
2018-12-13T16:08:09.142Z,-1.21
2018-12-13T16:09:45.350Z,-1.19
2018-12-13T16:11:22.642Z,-1.17
2018-12-13T16:13:03.205Z,-1.16
2018-12-13T16:14:40.045Z,-1.18
2018-12-13T16:16:15.378Z,-1.18
2018-12-13T16:17:51.946Z,-1.19
2018-12-13T16:19:29.685Z,-1.12
2018-12-13T16:21:05.388Z,-1.12
2018-12-13T16:22:42.962Z,-1.18
2018-12-13T16:24:18.330Z,-1.20
2018-12-13T16:25:56.230Z,-1.21
2018-12-13T16:27:32.540Z,-1.23
2018-12-13T16:29:09.500Z,-1.26
2018-12-13T16:30:50.452Z,-1.25
2018-12-13T16:32:33.885Z,-1.31
2018-12-13T16:34:14.815Z,-1.29
2018-12-13T16:35:49.890Z,-1.31
2018-12-13T16:37:29.924Z,-1.28
2018-12-13T16:39:09.991Z,-1.31
2018-12-13T16:40:46.464Z,-1.36
2018-12-13T16:42:21.485Z,-1.43
2018-12-13T16:44:08.189Z,-1.36
2018-12-13T16:45:49.898Z,-1.37
2018-12-13T16:47:27.056Z,-1.39
2018-12-13T16:49:06.796Z,-1.38
2018-12-13T16:50:42.381Z,-1.36
2018-12-13T16:52:19.169Z,-1.32
2018-12-13T16:53:57.959Z,-1.36
2018-12-13T16:55:37.405Z,-1.32
2018-12-13T16:57:16.478Z,-1.27
2018-12-13T16:59:00.849Z,-1.21
2018-12-13T17:00:37.571Z,-1.24
2018-12-13T17:02:14.460Z,-1.24
2018-12-13T17:03:50.584Z,-1.20
2018-12-13T17:05:26.077Z,-1.23
2018-12-13T17:07:03.755Z,-1.29
2018-12-13T17:08:40.451Z,-1.21
2018-12-13T17:10:19.134Z,-1.23
2018-12-13T17:11:54.904Z,-1.19
2018-12-13T17:13:31.358Z,-1.21
2018-12-13T17:15:09.535Z,-1.21
2018-12-13T17:16:45.560Z,-1.20
2018-12-13T17:18:21.835Z,-1.13
2018-12-13T17:20:00.517Z,-1.12
2018-12-13T17:21:40.576Z,-1.12
2018-12-13T17:23:19.558Z,-1.12
2018-12-13T17:25:00.790Z,-1.10
2018-12-13T17:26:37.833Z,-1.07
2018-12-13T17:28:19.590Z,-1.06
2018-12-13T17:29:59.347Z,-1.06
2018-12-13T17:31:39.952Z,-1.06
2018-12-13T17:33:18.617Z,-1.00
2018-12-13T17:34:54.985Z,-0.97
2018-12-13T17:36:33.819Z,-0.97
2018-12-13T17:38:11.324Z,-0.98
2018-12-13T17:39:48.381Z,-0.96
2018-12-13T17:41:25.916Z,-0.95
2018-12-13T17:43:05.241Z,-0.93
2018-12-13T17:44:43.728Z,-0.91
2018-12-13T17:46:22.245Z,-0.93
2018-12-13T17:48:03.937Z,-0.89
2018-12-13T17:49:44.145Z,-0.90
2018-12-13T17:51:21.674Z,-0.95
2018-12-13T17:52:58.494Z,-0.95
2018-12-13T17:54:35.575Z,-0.89
2018-12-13T17:56:14.133Z,-0.87
2018-12-13T17:57:51.080Z,-0.87
2018-12-13T17:59:32.534Z,-0.85
2018-12-13T18:01:15.454Z,-0.86
2018-12-13T18:02:54.905Z,-0.86
2018-12-13T18:04:33.310Z,-0.85
2018-12-13T18:08:32.082Z,-0.83
2018-12-13T18:10:16.554Z,-0.86
2018-12-13T18:12:05.733Z,-0.87
2018-12-13T18:13:45.572Z,-0.89
2018-12-13T18:15:34.480Z,-0.85
2018-12-13T18:17:19.633Z,-0.87
2018-12-13T18:18:56.084Z,-0.86
2018-12-13T18:20:41.008Z,-0.89
2018-12-13T18:22:23.590Z,-0.87
2018-12-13T18:24:01.286Z,-0.87
2018-12-13T18:25:36.477Z,-0.87
2018-12-13T18:27:15.254Z,-0.88
2018-12-13T18:28:58.616Z,-0.90
2018-12-13T18:30:41.070Z,-0.92
2018-12-13T18:32:24.497Z,-0.94
2018-12-13T18:34:06.011Z,-0.94
2018-12-13T18:35:46.525Z,-0.94
2018-12-13T18:37:29.535Z,-0.95
2018-12-13T18:39:10.307Z,-0.99
2018-12-13T18:40:53.950Z,-1.00
2018-12-13T18:42:30.770Z,-1.09
2018-12-13T18:46:19.943Z,-1.10
2018-12-13T18:48:00.169Z,-1.14
2018-12-13T18:49:39.136Z,-1.13
2018-12-13T18:51:18.764Z,-1.16
2018-12-13T18:52:58.664Z,-1.20
2018-12-13T18:54:39.420Z,-1.22
2018-12-13T18:56:16.275Z,-1.28
2018-12-13T18:59:37.430Z,-1.28
2018-12-13T19:01:19.161Z,-1.35
2018-12-13T19:02:56.544Z,-1.30
2018-12-13T19:04:37.492Z,-1.38
2018-12-13T19:09:34.266Z,-1.20
2018-12-13T19:11:16.541Z,-1.19
2018-12-13T19:12:54.058Z,-1.22
2018-12-13T19:14:41.444Z,-1.22
2018-12-13T19:16:18.705Z,-1.18
2018-12-13T19:17:57.760Z,-1.24
2018-12-13T19:19:45.353Z,-1.22
2018-12-13T19:21:21.300Z,-1.22
2018-12-13T19:22:59.596Z,-1.24
2018-12-13T19:24:36.492Z,-1.22
2018-12-13T19:26:13.928Z,-1.24
2018-12-13T19:27:50.187Z,-1.20
2018-12-13T19:29:25.858Z,-1.20
2018-12-13T19:31:08.678Z,-1.18
2018-12-13T19:32:46.377Z,-1.14
2018-12-13T19:34:27.267Z,-1.10
2018-12-13T19:36:10.220Z,-1.12
2018-12-13T19:37:47.503Z,-1.07
2018-12-13T19:39:24.849Z,-1.09
2018-12-13T19:41:08.447Z,-1.07
2018-12-13T19:42:47.336Z,-1.06
2018-12-13T19:44:24.878Z,-1.08
2018-12-13T19:46:02.510Z,-1.11
2018-12-13T19:47:43.581Z,-1.05
2018-12-13T19:51:08.490Z,-1.04
2018-12-13T19:52:48.027Z,-1.01
2018-12-13T19:54:29.666Z,-0.98
2018-12-13T19:56:08.332Z,-0.98
2018-12-13T19:57:44.442Z,-1.03
2018-12-13T19:59:23.917Z,-1.01
2018-12-13T20:00:59.352Z,-1.03
2018-12-13T20:02:36.848Z,-1.05
2018-12-13T20:04:19.607Z,-1.08
2018-12-13T20:05:59.651Z,-1.12
2018-12-13T20:07:35.441Z,-1.16
2018-12-13T20:09:13.391Z,-1.22
2018-12-13T20:10:54.843Z,-1.23
2018-12-13T20:12:35.507Z,-1.30
2018-12-13T20:14:12.538Z,-1.26
2018-12-13T20:15:49.337Z,-1.26
2018-12-13T20:17:28.244Z,-1.29
2018-12-13T20:19:07.176Z,-1.31
2018-12-13T20:20:44.259Z,-1.33
2018-12-13T20:22:20.326Z,-1.34
2018-12-13T20:23:57.695Z,-1.40
2018-12-13T20:25:33.564Z,-1.38
2018-12-13T20:27:14.042Z,-1.40
2018-12-13T20:28:54.943Z,-1.40
2018-12-13T20:30:34.589Z,-1.41
2018-12-13T20:32:18.126Z,-1.43
2018-12-13T20:33:54.268Z,-1.47
2018-12-13T20:35:34.380Z,-1.53
2018-12-13T20:37:15.254Z,-1.47
2018-12-13T20:38:53.291Z,-1.49
2018-12-13T20:40:30.368Z,-1.45
2018-12-13T20:42:07.445Z,-1.49
2018-12-13T20:43:44.776Z,-1.43
2018-12-13T20:45:21.265Z,-1.41
2018-12-13T20:46:58.694Z,-1.40
2018-12-13T20:48:35.737Z,-1.36
2018-12-13T20:50:13.098Z,-1.32
2018-12-13T20:51:50.722Z,-1.30
2018-12-13T20:53:25.833Z,-1.26
2018-12-13T20:55:02.602Z,-1.24
2018-12-13T20:56:38.322Z,-1.20
2018-12-13T20:58:14.276Z,-1.19
2018-12-13T20:59:52.520Z,-1.16
2018-12-13T21:01:28.286Z,-1.22
2018-12-13T21:03:06.600Z,-1.18
2018-12-13T21:04:44.058Z,-1.20
2018-12-13T21:06:24.185Z,-1.22
2018-12-13T21:08:07.142Z,-1.23
2018-12-13T21:09:43.216Z,-1.26
2018-12-13T21:11:20.763Z,-1.27
2018-12-13T21:12:56.539Z,-1.26